sensor_id;sensor_type;location;lat;lon;timestamp;P1;durP1;ratioP1;P2;durP2;ratioP2
59998;SDS011;45859;51.378;6.736;2024-01-30T00:01:22;13.67;;;10.57;;
59998;SDS011;45859;51.378;6.736;2024-01-30T00:03:48;6.83;;;3.90;;
59998;SDS011;45859;51.378;6.736;2024-01-30T00:06:18;9.93;;;4.20;;
59998;SDS011;45859;51.378;6.736;2024-01-30T00:08:45;4.70;;;2.60;;
59998;SDS011;45859;51.378;6.736;2024-01-30T00:11:13;7.50;;;4.40;;
59998;SDS011;45859;51.378;6.736;2024-01-30T00:13:40;6.80;;;2.93;;
59998;SDS011;45859;51.378;6.736;2024-01-30T00:16:06;9.10;;;5.20;;
59998;SDS011;45859;51.378;6.736;2024-01-30T00:18:32;3.93;;;2.93;;
59998;SDS011;45859;51.378;6.736;2024-01-30T00:20:58;5.00;;;3.60;;
59998;SDS011;45859;51.378;6.736;2024-01-30T00:23:24;4.30;;;3.17;;
59998;SDS011;45859;51.378;6.736;2024-01-30T00:25:50;4.03;;;2.40;;
59998;SDS011;45859;51.378;6.736;2024-01-30T00:28:16;8.53;;;4.47;;
59998;SDS011;45859;51.378;6.736;2024-01-30T00:30:42;8.50;;;3.57;;
59998;SDS011;45859;51.378;6.736;2024-01-30T00:33:08;9.27;;;5.13;;
59998;SDS011;45859;51.378;6.736;2024-01-30T00:35:34;10.03;;;4.47;;
59998;SDS011;45859;51.378;6.736;2024-01-30T00:38:00;4.83;;;2.73;;
59998;SDS011;45859;51.378;6.736;2024-01-30T00:40:26;4.30;;;2.47;;
59998;SDS011;45859;51.378;6.736;2024-01-30T00:42:52;15.50;;;10.93;;
59998;SDS011;45859;51.378;6.736;2024-01-30T00:45:18;6.80;;;4.40;;
59998;SDS011;45859;51.378;6.736;2024-01-30T00:47:45;7.40;;;4.83;;
59998;SDS011;45859;51.378;6.736;2024-01-30T00:50:11;5.70;;;3.67;;
59998;SDS011;45859;51.378;6.736;2024-01-30T00:52:36;8.53;;;4.33;;
59998;SDS011;45859;51.378;6.736;2024-01-30T00:55:04;7.63;;;3.73;;
59998;SDS011;45859;51.378;6.736;2024-01-30T00:57:30;12.60;;;4.63;;
59998;SDS011;45859;51.378;6.736;2024-01-30T00:59:56;8.33;;;4.07;;
59998;SDS011;45859;51.378;6.736;2024-01-30T01:02:22;11.93;;;5.57;;
59998;SDS011;45859;51.378;6.736;2024-01-30T01:04:48;9.57;;;4.33;;
59998;SDS011;45859;51.378;6.736;2024-01-30T01:07:15;5.67;;;3.90;;
59998;SDS011;45859;51.378;6.736;2024-01-30T01:09:41;8.40;;;4.80;;
59998;SDS011;45859;51.378;6.736;2024-01-30T01:12:07;6.30;;;3.87;;
59998;SDS011;45859;51.378;6.736;2024-01-30T01:14:32;4.93;;;2.20;;
59998;SDS011;45859;51.378;6.736;2024-01-30T01:16:58;10.40;;;5.40;;
59998;SDS011;45859;51.378;6.736;2024-01-30T01:19:24;14.57;;;5.33;;
59998;SDS011;45859;51.378;6.736;2024-01-30T01:21:50;10.20;;;4.73;;
59998;SDS011;45859;51.378;6.736;2024-01-30T01:24:17;7.47;;;3.87;;
59998;SDS011;45859;51.378;6.736;2024-01-30T01:26:43;6.03;;;4.47;;
59998;SDS011;45859;51.378;6.736;2024-01-30T01:29:09;9.07;;;4.17;;
59998;SDS011;45859;51.378;6.736;2024-01-30T01:31:37;11.30;;;4.90;;
59998;SDS011;45859;51.378;6.736;2024-01-30T01:34:11;7.97;;;4.97;;
59998;SDS011;45859;51.378;6.736;2024-01-30T01:36:37;6.70;;;3.63;;
59998;SDS011;45859;51.378;6.736;2024-01-30T01:39:03;9.93;;;4.97;;
59998;SDS011;45859;51.378;6.736;2024-01-30T01:41:30;4.87;;;3.60;;
59998;SDS011;45859;51.378;6.736;2024-01-30T01:43:56;7.90;;;4.53;;
59998;SDS011;45859;51.378;6.736;2024-01-30T01:46:22;10.63;;;5.33;;
59998;SDS011;45859;51.378;6.736;2024-01-30T01:48:49;5.07;;;3.10;;
59998;SDS011;45859;51.378;6.736;2024-01-30T01:51:15;6.93;;;3.90;;
59998;SDS011;45859;51.378;6.736;2024-01-30T01:53:41;11.03;;;5.57;;
59998;SDS011;45859;51.378;6.736;2024-01-30T01:56:07;6.17;;;2.67;;
59998;SDS011;45859;51.378;6.736;2024-01-30T01:58:34;9.20;;;5.33;;
59998;SDS011;45859;51.378;6.736;2024-01-30T02:01:00;6.30;;;3.57;;
59998;SDS011;45859;51.378;6.736;2024-01-30T02:03:26;6.13;;;3.53;;
59998;SDS011;45859;51.378;6.736;2024-01-30T02:05:51;6.13;;;3.83;;
59998;SDS011;45859;51.378;6.736;2024-01-30T02:08:17;10.80;;;3.93;;
59998;SDS011;45859;51.378;6.736;2024-01-30T02:10:44;5.67;;;3.93;;
59998;SDS011;45859;51.378;6.736;2024-01-30T02:13:10;7.90;;;3.47;;
59998;SDS011;45859;51.378;6.736;2024-01-30T02:15:36;5.30;;;3.47;;
59998;SDS011;45859;51.378;6.736;2024-01-30T02:18:02;6.97;;;3.80;;
59998;SDS011;45859;51.378;6.736;2024-01-30T02:20:28;5.30;;;3.37;;
59998;SDS011;45859;51.378;6.736;2024-01-30T02:22:56;7.40;;;4.00;;
59998;SDS011;45859;51.378;6.736;2024-01-30T02:25:38;6.72;;;3.58;;
59998;SDS011;45859;51.378;6.736;2024-01-30T02:28:04;5.20;;;3.60;;
59998;SDS011;45859;51.378;6.736;2024-01-30T02:33:13;4.70;;;2.73;;
59998;SDS011;45859;51.378;6.736;2024-01-30T02:35:39;4.47;;;3.00;;
59998;SDS011;45859;51.378;6.736;2024-01-30T02:38:05;5.03;;;3.67;;
59998;SDS011;45859;51.378;6.736;2024-01-30T02:40:34;8.10;;;3.37;;
59998;SDS011;45859;51.378;6.736;2024-01-30T02:43:00;6.63;;;3.53;;
59998;SDS011;45859;51.378;6.736;2024-01-30T02:45:30;9.57;;;4.53;;
59998;SDS011;45859;51.378;6.736;2024-01-30T02:47:59;9.02;;;5.03;;
59998;SDS011;45859;51.378;6.736;2024-01-30T02:50:25;8.87;;;4.00;;
59998;SDS011;45859;51.378;6.736;2024-01-30T02:52:57;6.10;;;3.80;;
59998;SDS011;45859;51.378;6.736;2024-01-30T02:55:32;11.47;;;5.47;;
59998;SDS011;45859;51.378;6.736;2024-01-30T02:57:58;9.30;;;3.92;;
59998;SDS011;45859;51.378;6.736;2024-01-30T03:00:28;8.67;;;5.07;;
59998;SDS011;45859;51.378;6.736;2024-01-30T03:03:08;6.40;;;3.80;;
59998;SDS011;45859;51.378;6.736;2024-01-30T03:05:34;5.27;;;2.90;;
59998;SDS011;45859;51.378;6.736;2024-01-30T03:08:00;4.43;;;3.30;;
59998;SDS011;45859;51.378;6.736;2024-01-30T03:10:27;8.13;;;3.30;;
59998;SDS011;45859;51.378;6.736;2024-01-30T03:12:56;6.67;;;3.80;;
59998;SDS011;45859;51.378;6.736;2024-01-30T03:15:49;6.27;;;3.07;;
59998;SDS011;45859;51.378;6.736;2024-01-30T03:18:15;8.83;;;4.23;;
59998;SDS011;45859;51.378;6.736;2024-01-30T03:20:41;7.27;;;3.13;;
59998;SDS011;45859;51.378;6.736;2024-01-30T03:23:17;7.97;;;3.70;;
59998;SDS011;45859;51.378;6.736;2024-01-30T03:25:46;6.60;;;4.00;;
59998;SDS011;45859;51.378;6.736;2024-01-30T03:28:12;7.20;;;3.70;;
59998;SDS011;45859;51.378;6.736;2024-01-30T03:30:38;5.50;;;2.97;;
59998;SDS011;45859;51.378;6.736;2024-01-30T03:33:04;6.30;;;4.10;;
59998;SDS011;45859;51.378;6.736;2024-01-30T03:35:45;5.33;;;3.07;;
59998;SDS011;45859;51.378;6.736;2024-01-30T03:38:32;6.53;;;2.43;;
59998;SDS011;45859;51.378;6.736;2024-01-30T03:40:58;7.50;;;3.67;;
59998;SDS011;45859;51.378;6.736;2024-01-30T03:43:34;3.40;;;3.07;;
59998;SDS011;45859;51.378;6.736;2024-01-30T03:46:00;8.33;;;3.97;;
59998;SDS011;45859;51.378;6.736;2024-01-30T03:48:26;9.23;;;4.43;;
59998;SDS011;45859;51.378;6.736;2024-01-30T03:50:56;8.80;;;3.57;;
59998;SDS011;45859;51.378;6.736;2024-01-30T03:53:22;7.93;;;2.53;;
59998;SDS011;45859;51.378;6.736;2024-01-30T03:55:57;5.90;;;2.33;;
59998;SDS011;45859;51.378;6.736;2024-01-30T03:58:29;6.53;;;3.30;;
59998;SDS011;45859;51.378;6.736;2024-01-30T04:00:58;6.23;;;2.87;;
59998;SDS011;45859;51.378;6.736;2024-01-30T04:03:30;5.57;;;3.63;;
59998;SDS011;45859;51.378;6.736;2024-01-30T04:05:59;7.23;;;3.30;;
59998;SDS011;45859;51.378;6.736;2024-01-30T04:08:43;10.43;;;4.17;;
59998;SDS011;45859;51.378;6.736;2024-01-30T04:11:21;5.27;;;3.03;;
59998;SDS011;45859;51.378;6.736;2024-01-30T04:13:47;8.37;;;3.73;;
59998;SDS011;45859;51.378;6.736;2024-01-30T04:16:20;6.90;;;3.57;;
59998;SDS011;45859;51.378;6.736;2024-01-30T04:18:47;6.50;;;3.87;;
59998;SDS011;45859;51.378;6.736;2024-01-30T04:21:13;5.70;;;3.40;;
59998;SDS011;45859;51.378;6.736;2024-01-30T04:23:39;4.53;;;2.83;;
59998;SDS011;45859;51.378;6.736;2024-01-30T04:26:06;8.20;;;5.17;;
59998;SDS011;45859;51.378;6.736;2024-01-30T04:28:31;6.83;;;3.13;;
59998;SDS011;45859;51.378;6.736;2024-01-30T04:30:58;7.30;;;4.57;;
59998;SDS011;45859;51.378;6.736;2024-01-30T04:33:24;7.80;;;4.03;;
59998;SDS011;45859;51.378;6.736;2024-01-30T04:35:49;5.63;;;3.33;;
59998;SDS011;45859;51.378;6.736;2024-01-30T04:38:17;7.53;;;4.53;;
59998;SDS011;45859;51.378;6.736;2024-01-30T04:40:42;8.10;;;4.73;;
59998;SDS011;45859;51.378;6.736;2024-01-30T04:43:08;6.23;;;3.83;;
59998;SDS011;45859;51.378;6.736;2024-01-30T04:45:34;5.90;;;3.47;;
59998;SDS011;45859;51.378;6.736;2024-01-30T04:48:00;6.10;;;2.90;;
59998;SDS011;45859;51.378;6.736;2024-01-30T04:50:26;6.90;;;4.03;;
59998;SDS011;45859;51.378;6.736;2024-01-30T04:52:52;6.47;;;2.93;;
59998;SDS011;45859;51.378;6.736;2024-01-30T04:55:18;6.43;;;4.03;;
59998;SDS011;45859;51.378;6.736;2024-01-30T04:57:44;8.27;;;4.23;;
59998;SDS011;45859;51.378;6.736;2024-01-30T05:00:10;8.07;;;4.10;;
59998;SDS011;45859;51.378;6.736;2024-01-30T05:02:36;8.80;;;4.73;;
59998;SDS011;45859;51.378;6.736;2024-01-30T05:05:02;6.93;;;4.33;;
59998;SDS011;45859;51.378;6.736;2024-01-30T05:07:29;8.53;;;4.23;;
59998;SDS011;45859;51.378;6.736;2024-01-30T05:09:55;5.37;;;3.07;;
59998;SDS011;45859;51.378;6.736;2024-01-30T05:12:21;7.43;;;4.60;;
59998;SDS011;45859;51.378;6.736;2024-01-30T05:14:47;7.43;;;4.33;;
59998;SDS011;45859;51.378;6.736;2024-01-30T05:17:13;5.07;;;3.20;;
59998;SDS011;45859;51.378;6.736;2024-01-30T05:19:39;8.00;;;3.77;;
59998;SDS011;45859;51.378;6.736;2024-01-30T05:22:05;11.83;;;5.03;;
59998;SDS011;45859;51.378;6.736;2024-01-30T05:24:31;7.33;;;4.37;;
59998;SDS011;45859;51.378;6.736;2024-01-30T05:26:57;4.67;;;3.50;;
59998;SDS011;45859;51.378;6.736;2024-01-30T05:29:23;8.73;;;4.33;;
59998;SDS011;45859;51.378;6.736;2024-01-30T05:31:49;8.37;;;3.33;;
59998;SDS011;45859;51.378;6.736;2024-01-30T05:34:15;9.87;;;4.50;;
59998;SDS011;45859;51.378;6.736;2024-01-30T05:36:41;6.33;;;3.80;;
59998;SDS011;45859;51.378;6.736;2024-01-30T05:39:08;7.83;;;4.90;;
59998;SDS011;45859;51.378;6.736;2024-01-30T05:41:34;6.50;;;3.57;;
59998;SDS011;45859;51.378;6.736;2024-01-30T05:44:00;6.13;;;3.57;;
59998;SDS011;45859;51.378;6.736;2024-01-30T05:46:26;8.63;;;4.47;;
59998;SDS011;45859;51.378;6.736;2024-01-30T05:48:52;7.07;;;3.77;;
59998;SDS011;45859;51.378;6.736;2024-01-30T05:51:18;5.67;;;2.83;;
59998;SDS011;45859;51.378;6.736;2024-01-30T05:53:44;5.83;;;3.73;;
59998;SDS011;45859;51.378;6.736;2024-01-30T05:56:10;9.90;;;4.67;;
59998;SDS011;45859;51.378;6.736;2024-01-30T05:58:36;10.77;;;4.87;;
59998;SDS011;45859;51.378;6.736;2024-01-30T06:01:03;9.33;;;5.03;;
59998;SDS011;45859;51.378;6.736;2024-01-30T06:03:33;4.30;;;2.67;;
59998;SDS011;45859;51.378;6.736;2024-01-30T06:05:59;9.73;;;3.67;;
59998;SDS011;45859;51.378;6.736;2024-01-30T06:08:25;5.83;;;3.37;;
59998;SDS011;45859;51.378;6.736;2024-01-30T06:10:51;6.30;;;3.43;;
59998;SDS011;45859;51.378;6.736;2024-01-30T06:13:35;7.53;;;3.97;;
59998;SDS011;45859;51.378;6.736;2024-01-30T06:16:10;7.50;;;4.87;;
59998;SDS011;45859;51.378;6.736;2024-01-30T06:18:50;8.13;;;3.90;;
59998;SDS011;45859;51.378;6.736;2024-01-30T06:21:17;9.47;;;3.87;;
59998;SDS011;45859;51.378;6.736;2024-01-30T06:23:52;13.00;;;4.57;;
59998;SDS011;45859;51.378;6.736;2024-01-30T06:26:24;5.93;;;4.13;;
59998;SDS011;45859;51.378;6.736;2024-01-30T06:28:50;4.33;;;3.30;;
59998;SDS011;45859;51.378;6.736;2024-01-30T06:31:24;9.80;;;5.47;;
59998;SDS011;45859;51.378;6.736;2024-01-30T06:33:50;4.50;;;2.60;;
59998;SDS011;45859;51.378;6.736;2024-01-30T06:36:16;5.23;;;3.53;;
59998;SDS011;45859;51.378;6.736;2024-01-30T06:38:45;12.00;;;3.03;;
59998;SDS011;45859;51.378;6.736;2024-01-30T06:41:11;4.50;;;3.03;;
59998;SDS011;45859;51.378;6.736;2024-01-30T06:43:41;9.87;;;4.97;;
59998;SDS011;45859;51.378;6.736;2024-01-30T06:46:25;10.20;;;5.33;;
59998;SDS011;45859;51.378;6.736;2024-01-30T06:48:55;8.30;;;4.40;;
59998;SDS011;45859;51.378;6.736;2024-01-30T06:51:21;3.40;;;2.90;;
59998;SDS011;45859;51.378;6.736;2024-01-30T06:53:56;7.10;;;3.93;;
59998;SDS011;45859;51.378;6.736;2024-01-30T06:56:28;6.50;;;3.27;;
59998;SDS011;45859;51.378;6.736;2024-01-30T06:59:00;5.60;;;3.40;;
59998;SDS011;45859;51.378;6.736;2024-01-30T07:01:30;6.17;;;3.93;;
59998;SDS011;45859;51.378;6.736;2024-01-30T07:03:57;12.30;;;4.50;;
59998;SDS011;45859;51.378;6.736;2024-01-30T07:06:41;8.43;;;3.90;;
59998;SDS011;45859;51.378;6.736;2024-01-30T07:09:12;6.87;;;3.60;;
59998;SDS011;45859;51.378;6.736;2024-01-30T07:11:52;7.33;;;3.80;;
59998;SDS011;45859;51.378;6.736;2024-01-30T07:14:33;4.50;;;2.80;;
59998;SDS011;45859;51.378;6.736;2024-01-30T07:16:59;8.40;;;4.33;;
59998;SDS011;45859;51.378;6.736;2024-01-30T07:19:24;8.13;;;3.53;;
59998;SDS011;45859;51.378;6.736;2024-01-30T07:21:53;8.33;;;4.03;;
59998;SDS011;45859;51.378;6.736;2024-01-30T07:24:19;7.13;;;3.13;;
59998;SDS011;45859;51.378;6.736;2024-01-30T07:26:45;8.80;;;4.47;;
59998;SDS011;45859;51.378;6.736;2024-01-30T07:29:11;8.47;;;3.20;;
59998;SDS011;45859;51.378;6.736;2024-01-30T07:31:38;4.53;;;2.57;;
59998;SDS011;45859;51.378;6.736;2024-01-30T07:34:03;5.43;;;4.13;;
59998;SDS011;45859;51.378;6.736;2024-01-30T07:36:30;8.37;;;4.70;;
59998;SDS011;45859;51.378;6.736;2024-01-30T07:38:56;8.63;;;3.03;;
59998;SDS011;45859;51.378;6.736;2024-01-30T07:41:22;7.27;;;4.27;;
59998;SDS011;45859;51.378;6.736;2024-01-30T07:43:50;11.33;;;3.87;;
59998;SDS011;45859;51.378;6.736;2024-01-30T07:46:21;4.80;;;3.50;;
59998;SDS011;45859;51.378;6.736;2024-01-30T07:48:47;5.83;;;3.10;;
59998;SDS011;45859;51.378;6.736;2024-01-30T07:51:13;8.30;;;3.43;;
59998;SDS011;45859;51.378;6.736;2024-01-30T07:53:40;9.90;;;3.13;;
59998;SDS011;45859;51.378;6.736;2024-01-30T07:56:10;10.90;;;3.63;;
59998;SDS011;45859;51.378;6.736;2024-01-30T07:58:49;8.45;;;4.25;;
59998;SDS011;45859;51.378;6.736;2024-01-30T08:01:21;9.90;;;4.80;;
59998;SDS011;45859;51.378;6.736;2024-01-30T08:04:19;12.03;;;5.20;;
59998;SDS011;45859;51.378;6.736;2024-01-30T08:09:34;6.13;;;3.40;;
59998;SDS011;45859;51.378;6.736;2024-01-30T08:12:00;8.00;;;4.43;;
59998;SDS011;45859;51.378;6.736;2024-01-30T08:14:26;14.60;;;4.60;;
59998;SDS011;45859;51.378;6.736;2024-01-30T08:16:53;11.50;;;5.37;;
59998;SDS011;45859;51.378;6.736;2024-01-30T08:19:24;9.27;;;4.23;;
59998;SDS011;45859;51.378;6.736;2024-01-30T08:21:50;10.63;;;3.37;;
59998;SDS011;45859;51.378;6.736;2024-01-30T08:24:17;9.83;;;5.30;;
59998;SDS011;45859;51.378;6.736;2024-01-30T08:26:46;9.07;;;4.10;;
59998;SDS011;45859;51.378;6.736;2024-01-30T08:29:27;6.20;;;3.67;;
59998;SDS011;45859;51.378;6.736;2024-01-30T08:31:59;7.50;;;3.03;;
59998;SDS011;45859;51.378;6.736;2024-01-30T08:34:39;8.40;;;4.97;;
59998;SDS011;45859;51.378;6.736;2024-01-30T08:37:05;6.80;;;3.63;;
59998;SDS011;45859;51.378;6.736;2024-01-30T08:39:31;10.63;;;5.13;;
59998;SDS011;45859;51.378;6.736;2024-01-30T08:41:58;9.50;;;4.87;;
59998;SDS011;45859;51.378;6.736;2024-01-30T08:47:40;7.07;;;3.65;;
59998;SDS011;45859;51.378;6.736;2024-01-30T08:50:06;6.22;;;3.88;;
59998;SDS011;45859;51.378;6.736;2024-01-30T08:52:32;11.70;;;4.37;;
59998;SDS011;45859;51.378;6.736;2024-01-30T08:55:02;6.13;;;3.53;;
59998;SDS011;45859;51.378;6.736;2024-01-30T08:57:34;4.47;;;3.43;;
59998;SDS011;45859;51.378;6.736;2024-01-30T09:00:16;8.67;;;4.40;;
59998;SDS011;45859;51.378;6.736;2024-01-30T09:02:51;9.03;;;4.47;;
59998;SDS011;45859;51.378;6.736;2024-01-30T09:05:23;6.37;;;4.07;;
59998;SDS011;45859;51.378;6.736;2024-01-30T09:07:49;10.43;;;4.73;;
59998;SDS011;45859;51.378;6.736;2024-01-30T09:10:15;9.33;;;4.53;;
59998;SDS011;45859;51.378;6.736;2024-01-30T09:12:41;11.30;;;9.03;;
59998;SDS011;45859;51.378;6.736;2024-01-30T09:15:31;11.87;;;9.93;;
59998;SDS011;45859;51.378;6.736;2024-01-30T09:18:00;12.00;;;9.17;;
59998;SDS011;45859;51.378;6.736;2024-01-30T09:20:30;13.60;;;9.83;;
59998;SDS011;45859;51.378;6.736;2024-01-30T09:22:56;13.83;;;10.30;;
59998;SDS011;45859;51.378;6.736;2024-01-30T09:25:43;12.30;;;10.23;;
59998;SDS011;45859;51.378;6.736;2024-01-30T09:33:47;12.17;;;9.70;;
59998;SDS011;45859;51.378;6.736;2024-01-30T09:36:23;12.93;;;9.70;;
59998;SDS011;45859;51.378;6.736;2024-01-30T09:38:59;11.87;;;9.33;;
59998;SDS011;45859;51.378;6.736;2024-01-30T09:41:25;15.05;;;9.75;;
59998;SDS011;45859;51.378;6.736;2024-01-30T09:43:53;12.10;;;9.33;;
59998;SDS011;45859;51.378;6.736;2024-01-30T09:46:38;12.67;;;10.67;;
59998;SDS011;45859;51.378;6.736;2024-01-30T09:49:13;14.10;;;10.10;;
59998;SDS011;45859;51.378;6.736;2024-01-30T09:51:49;15.07;;;10.30;;
59998;SDS011;45859;51.378;6.736;2024-01-30T09:54:22;13.20;;;9.85;;
59998;SDS011;45859;51.378;6.736;2024-01-30T09:57:05;13.77;;;10.13;;
59998;SDS011;45859;51.378;6.736;2024-01-30T09:59:35;13.97;;;10.80;;
59998;SDS011;45859;51.378;6.736;2024-01-30T10:02:10;13.50;;;9.80;;
59998;SDS011;45859;51.378;6.736;2024-01-30T10:04:36;15.27;;;10.43;;
59998;SDS011;45859;51.378;6.736;2024-01-30T10:07:05;14.20;;;10.90;;
59998;SDS011;45859;51.378;6.736;2024-01-30T10:09:32;9.25;;;4.75;;
59998;SDS011;45859;51.378;6.736;2024-01-30T10:12:05;13.23;;;10.23;;
59998;SDS011;45859;51.378;6.736;2024-01-30T10:14:39;11.20;;;10.00;;
59998;SDS011;45859;51.378;6.736;2024-01-30T10:17:33;15.03;;;10.30;;
59998;SDS011;45859;51.378;6.736;2024-01-30T10:20:04;14.30;;;10.43;;
59998;SDS011;45859;51.378;6.736;2024-01-30T10:22:34;14.57;;;9.93;;
59998;SDS011;45859;51.378;6.736;2024-01-30T10:25:01;11.63;;;9.70;;
59998;SDS011;45859;51.378;6.736;2024-01-30T10:27:43;14.47;;;9.93;;
59998;SDS011;45859;51.378;6.736;2024-01-30T10:30:10;12.63;;;9.53;;
59998;SDS011;45859;51.378;6.736;2024-01-30T10:32:45;6.37;;;3.47;;
59998;SDS011;45859;51.378;6.736;2024-01-30T10:35:26;12.27;;;4.80;;
59998;SDS011;45859;51.378;6.736;2024-01-30T10:38:01;15.63;;;10.20;;
59998;SDS011;45859;51.378;6.736;2024-01-30T10:40:28;14.50;;;9.47;;
59998;SDS011;45859;51.378;6.736;2024-01-30T10:42:55;15.37;;;9.87;;
59998;SDS011;45859;51.378;6.736;2024-01-30T10:45:38;13.27;;;9.53;;
59998;SDS011;45859;51.378;6.736;2024-01-30T10:48:12;10.93;;;9.13;;
59998;SDS011;45859;51.378;6.736;2024-01-30T10:53:27;12.47;;;9.40;;
59998;SDS011;45859;51.378;6.736;2024-01-30T10:55:54;13.97;;;8.97;;
59998;SDS011;45859;51.378;6.736;2024-01-30T11:01:42;12.53;;;9.20;;
59998;SDS011;45859;51.378;6.736;2024-01-30T11:04:21;13.80;;;9.77;;
59998;SDS011;45859;51.378;6.736;2024-01-30T11:06:53;15.80;;;9.83;;
59998;SDS011;45859;51.378;6.736;2024-01-30T11:09:32;13.70;;;10.00;;
59998;SDS011;45859;51.378;6.736;2024-01-30T11:12:14;14.37;;;10.20;;
59998;SDS011;45859;51.378;6.736;2024-01-30T11:17:53;11.77;;;9.47;;
59998;SDS011;45859;51.378;6.736;2024-01-30T11:23:23;12.70;;;10.00;;
59998;SDS011;45859;51.378;6.736;2024-01-30T11:26:05;6.47;;;3.17;;
59998;SDS011;45859;51.378;6.736;2024-01-30T11:28:45;17.13;;;10.35;;
59998;SDS011;45859;51.378;6.736;2024-01-30T11:31:21;14.20;;;10.53;;
59998;SDS011;45859;51.378;6.736;2024-01-30T11:33:47;13.60;;;10.13;;
59998;SDS011;45859;51.378;6.736;2024-01-30T11:36:25;15.03;;;10.50;;
59998;SDS011;45859;51.378;6.736;2024-01-30T11:38:58;14.73;;;10.57;;
59998;SDS011;45859;51.378;6.736;2024-01-30T11:41:28;13.10;;;10.10;;
59998;SDS011;45859;51.378;6.736;2024-01-30T11:43:58;13.45;;;10.55;;
59998;SDS011;45859;51.378;6.736;2024-01-30T11:52:06;15.13;;;9.90;;
59998;SDS011;45859;51.378;6.736;2024-01-30T11:54:41;15.10;;;10.33;;
59998;SDS011;45859;51.378;6.736;2024-01-30T11:57:13;14.83;;;10.60;;
59998;SDS011;45859;51.378;6.736;2024-01-30T11:59:47;14.03;;;10.23;;
59998;SDS011;45859;51.378;6.736;2024-01-30T12:02:35;17.67;;;10.43;;
59998;SDS011;45859;51.378;6.736;2024-01-30T12:05:03;14.20;;;9.50;;
59998;SDS011;45859;51.378;6.736;2024-01-30T12:07:45;17.10;;;9.48;;
59998;SDS011;45859;51.378;6.736;2024-01-30T12:10:12;13.43;;;9.43;;
59998;SDS011;45859;51.378;6.736;2024-01-30T12:12:42;15.37;;;9.97;;
59998;SDS011;45859;51.378;6.736;2024-01-30T12:15:14;13.43;;;9.43;;
59998;SDS011;45859;51.378;6.736;2024-01-30T12:17:46;14.07;;;9.80;;
59998;SDS011;45859;51.378;6.736;2024-01-30T12:20:21;13.07;;;8.50;;
59998;SDS011;45859;51.378;6.736;2024-01-30T12:22:48;13.13;;;9.80;;
59998;SDS011;45859;51.378;6.736;2024-01-30T12:25:18;12.57;;;9.47;;
59998;SDS011;45859;51.378;6.736;2024-01-30T12:27:55;13.85;;;8.82;;
59998;SDS011;45859;51.378;6.736;2024-01-30T12:30:21;14.83;;;8.80;;
59998;SDS011;45859;51.378;6.736;2024-01-30T12:33:04;16.58;;;9.85;;
59998;SDS011;45859;51.378;6.736;2024-01-30T12:38:19;13.10;;;9.07;;
59998;SDS011;45859;51.378;6.736;2024-01-30T12:40:48;14.00;;;9.37;;
59998;SDS011;45859;51.378;6.736;2024-01-30T12:46:02;15.97;;;9.53;;
59998;SDS011;45859;51.378;6.736;2024-01-30T12:48:44;15.17;;;9.00;;
59998;SDS011;45859;51.378;6.736;2024-01-30T12:51:37;13.53;;;8.63;;
59998;SDS011;45859;51.378;6.736;2024-01-30T12:54:13;17.13;;;9.03;;
59998;SDS011;45859;51.378;6.736;2024-01-30T12:56:39;10.73;;;8.57;;
59998;SDS011;45859;51.378;6.736;2024-01-30T12:59:21;16.83;;;9.03;;
59998;SDS011;45859;51.378;6.736;2024-01-30T13:02:00;13.57;;;8.83;;
59998;SDS011;45859;51.378;6.736;2024-01-30T13:04:28;17.38;;;8.88;;
59998;SDS011;45859;51.378;6.736;2024-01-30T13:06:54;15.53;;;9.30;;
59998;SDS011;45859;51.378;6.736;2024-01-30T13:09:26;13.83;;;9.10;;
59998;SDS011;45859;51.378;6.736;2024-01-30T13:11:59;17.63;;;10.23;;
59998;SDS011;45859;51.378;6.736;2024-01-30T13:17:00;16.70;;;10.83;;
59998;SDS011;45859;51.378;6.736;2024-01-30T13:19:26;15.57;;;10.53;;
59998;SDS011;45859;51.378;6.736;2024-01-30T13:22:05;15.97;;;10.60;;
59998;SDS011;45859;51.378;6.736;2024-01-30T13:24:37;16.60;;;9.57;;
59998;SDS011;45859;51.378;6.736;2024-01-30T13:27:24;17.23;;;9.80;;
59998;SDS011;45859;51.378;6.736;2024-01-30T13:29:53;15.60;;;9.20;;
59998;SDS011;45859;51.378;6.736;2024-01-30T13:32:28;14.70;;;9.37;;
59998;SDS011;45859;51.378;6.736;2024-01-30T13:34:54;17.43;;;9.77;;
59998;SDS011;45859;51.378;6.736;2024-01-30T13:37:26;16.07;;;9.73;;
59998;SDS011;45859;51.378;6.736;2024-01-30T13:39:52;16.30;;;9.93;;
59998;SDS011;45859;51.378;6.736;2024-01-30T13:42:21;14.30;;;9.97;;
59998;SDS011;45859;51.378;6.736;2024-01-30T13:45:08;14.07;;;9.63;;
59998;SDS011;45859;51.378;6.736;2024-01-30T13:47:40;14.63;;;9.93;;
59998;SDS011;45859;51.378;6.736;2024-01-30T13:50:09;17.67;;;11.53;;
59998;SDS011;45859;51.378;6.736;2024-01-30T13:52:40;13.70;;;10.63;;
59998;SDS011;45859;51.378;6.736;2024-01-30T13:55:12;14.50;;;10.37;;
59998;SDS011;45859;51.378;6.736;2024-01-30T13:57:44;17.77;;;10.53;;
59998;SDS011;45859;51.378;6.736;2024-01-30T14:00:25;14.77;;;9.00;;
59998;SDS011;45859;51.378;6.736;2024-01-30T14:02:54;12.87;;;8.67;;
59998;SDS011;45859;51.378;6.736;2024-01-30T14:05:35;26.57;;;8.83;;
59998;SDS011;45859;51.378;6.736;2024-01-30T14:08:04;14.23;;;8.90;;
59998;SDS011;45859;51.378;6.736;2024-01-30T14:10:37;13.23;;;8.20;;
59998;SDS011;45859;51.378;6.736;2024-01-30T14:13:15;13.03;;;8.43;;
59998;SDS011;45859;51.378;6.736;2024-01-30T14:15:45;13.70;;;8.57;;
59998;SDS011;45859;51.378;6.736;2024-01-30T14:18:17;12.23;;;8.77;;
59998;SDS011;45859;51.378;6.736;2024-01-30T14:20:56;15.27;;;9.23;;
59998;SDS011;45859;51.378;6.736;2024-01-30T14:23:28;13.07;;;9.40;;
59998;SDS011;45859;51.378;6.736;2024-01-30T14:25:58;14.03;;;8.80;;
59998;SDS011;45859;51.378;6.736;2024-01-30T14:31:21;14.70;;;9.70;;
59998;SDS011;45859;51.378;6.736;2024-01-30T14:33:59;15.03;;;10.53;;
59998;SDS011;45859;51.378;6.736;2024-01-30T14:36:38;16.20;;;10.33;;
59998;SDS011;45859;51.378;6.736;2024-01-30T14:41:38;18.43;;;11.60;;
59998;SDS011;45859;51.378;6.736;2024-01-30T14:44:04;15.10;;;9.83;;
59998;SDS011;45859;51.378;6.736;2024-01-30T14:46:30;14.57;;;9.17;;
59998;SDS011;45859;51.378;6.736;2024-01-30T14:48:56;16.77;;;8.47;;
59998;SDS011;45859;51.378;6.736;2024-01-30T14:51:22;17.77;;;8.77;;
59998;SDS011;45859;51.378;6.736;2024-01-30T14:53:48;13.90;;;8.13;;
59998;SDS011;45859;51.378;6.736;2024-01-30T14:56:14;16.40;;;7.90;;
59998;SDS011;45859;51.378;6.736;2024-01-30T14:58:40;13.50;;;7.27;;
59998;SDS011;45859;51.378;6.736;2024-01-30T15:01:06;9.67;;;6.90;;
59998;SDS011;45859;51.378;6.736;2024-01-30T15:03:32;9.97;;;7.00;;
59998;SDS011;45859;51.378;6.736;2024-01-30T15:05:58;11.30;;;7.47;;
59998;SDS011;45859;51.378;6.736;2024-01-30T15:08:24;9.67;;;7.40;;
59998;SDS011;45859;51.378;6.736;2024-01-30T15:10:50;11.53;;;6.83;;
59998;SDS011;45859;51.378;6.736;2024-01-30T15:13:16;10.77;;;6.60;;
59998;SDS011;45859;51.378;6.736;2024-01-30T15:15:43;8.43;;;5.33;;
59998;SDS011;45859;51.378;6.736;2024-01-30T15:18:09;8.93;;;5.17;;
59998;SDS011;45859;51.378;6.736;2024-01-30T15:20:37;9.33;;;5.33;;
59998;SDS011;45859;51.378;6.736;2024-01-30T15:23:03;9.70;;;4.83;;
59998;SDS011;45859;51.378;6.736;2024-01-30T15:25:29;7.87;;;4.40;;
59998;SDS011;45859;51.378;6.736;2024-01-30T15:27:55;7.20;;;3.70;;
59998;SDS011;45859;51.378;6.736;2024-01-30T15:30:21;6.33;;;3.67;;
59998;SDS011;45859;51.378;6.736;2024-01-30T15:32:47;4.57;;;2.50;;
59998;SDS011;45859;51.378;6.736;2024-01-30T15:35:13;4.23;;;2.43;;
59998;SDS011;45859;51.378;6.736;2024-01-30T15:37:39;5.17;;;2.10;;
59998;SDS011;45859;51.378;6.736;2024-01-30T15:40:05;2.83;;;1.70;;
59998;SDS011;45859;51.378;6.736;2024-01-30T15:42:33;5.73;;;2.03;;